createdAt,value
2019-02-07T00:00:35.183Z,8.31
2019-02-07T00:01:35.152Z,8.34
2019-02-07T00:02:35.140Z,8.34
2019-02-07T00:03:35.105Z,8.35
2019-02-07T00:04:35.083Z,8.32
2019-02-07T00:05:35.064Z,8.32
2019-02-07T00:06:35.051Z,8.34
2019-02-07T00:07:35.009Z,8.35
2019-02-07T00:08:34.985Z,8.35
2019-02-07T00:09:34.975Z,8.36
2019-02-07T00:10:34.937Z,8.36
2019-02-07T00:11:34.925Z,8.36
2019-02-07T00:12:34.899Z,8.31
2019-02-07T00:13:34.868Z,8.35
2019-02-07T00:14:39.756Z,8.32
2019-02-07T00:15:36.554Z,8.35
2019-02-07T00:16:34.896Z,8.34
2019-02-07T00:17:34.772Z,8.35
2019-02-07T00:18:34.753Z,8.35
2019-02-07T00:19:34.726Z,8.28
2019-02-07T00:20:34.701Z,8.34
2019-02-07T00:21:34.680Z,8.35
2019-02-07T00:22:34.659Z,8.36
2019-02-07T00:23:34.644Z,8.42
2019-02-07T00:24:42.480Z,8.35
2019-02-07T00:25:34.600Z,8.50
2019-02-07T00:26:34.565Z,8.42
2019-02-07T00:27:34.544Z,8.34
2019-02-07T00:28:34.514Z,8.34
2019-02-07T00:29:34.496Z,8.32
2019-02-07T00:30:34.474Z,8.41
2019-02-07T00:31:34.442Z,8.36
2019-02-07T00:32:34.418Z,8.38
2019-02-07T00:33:34.397Z,8.32
2019-02-07T00:34:34.382Z,8.41
2019-02-07T00:35:34.347Z,8.34
2019-02-07T00:36:34.325Z,8.41
2019-02-07T00:37:34.299Z,8.26
2019-02-07T00:38:34.274Z,8.34
2019-02-07T00:39:34.252Z,8.39
2019-02-07T00:40:34.236Z,8.36
2019-02-07T00:41:34.204Z,8.35
2019-02-07T00:42:34.202Z,8.32
2019-02-07T00:43:34.164Z,8.42
2019-02-07T00:44:34.143Z,8.41
2019-02-07T00:45:34.121Z,8.42
2019-02-07T00:46:34.104Z,8.34
2019-02-07T00:47:34.068Z,8.38
2019-02-07T00:48:34.044Z,8.35
2019-02-07T00:49:34.021Z,8.35
2019-02-07T00:50:34.006Z,8.34
2019-02-07T00:51:33.970Z,8.42
2019-02-07T00:52:33.950Z,8.41
2019-02-07T00:53:33.932Z,8.41
2019-02-07T00:54:33.908Z,8.35
2019-02-07T00:55:33.967Z,8.35
2019-02-07T00:56:33.855Z,8.35
2019-02-07T00:57:33.829Z,8.32
2019-02-07T00:58:33.805Z,8.45
2019-02-07T00:59:33.781Z,8.45
2019-02-07T01:00:33.764Z,8.35
2019-02-07T01:01:33.732Z,8.34
2019-02-07T01:02:33.727Z,8.42
2019-02-07T01:03:33.735Z,8.44
2019-02-07T01:04:33.666Z,8.31
2019-02-07T01:05:33.641Z,8.44
2019-02-07T01:06:33.613Z,8.45
2019-02-07T01:07:33.589Z,8.42
2019-02-07T01:08:33.573Z,8.44
2019-02-07T01:09:33.542Z,8.44
2019-02-07T01:10:33.517Z,8.49
2019-02-07T01:11:33.499Z,8.42
2019-02-07T01:12:33.477Z,8.52
2019-02-07T01:13:33.447Z,8.46
2019-02-07T01:14:33.423Z,8.38
2019-02-07T01:15:33.399Z,8.44
2019-02-07T01:16:33.375Z,8.44
2019-02-07T01:17:33.353Z,8.39
2019-02-07T01:18:33.335Z,8.41
2019-02-07T01:19:33.304Z,8.45
2019-02-07T01:20:33.280Z,8.46
2019-02-07T01:21:33.266Z,8.41
2019-02-07T01:22:33.233Z,8.35
2019-02-07T01:23:33.216Z,8.31
2019-02-07T01:24:33.186Z,8.36
2019-02-07T01:25:33.168Z,8.36
2019-02-07T01:26:33.138Z,8.35
2019-02-07T01:27:33.119Z,8.42
2019-02-07T01:28:33.090Z,8.45
2019-02-07T01:29:33.066Z,8.38
2019-02-07T01:30:33.041Z,8.28
2019-02-07T01:31:33.018Z,8.32
2019-02-07T01:32:33.001Z,8.35
2019-02-07T01:33:32.973Z,8.35
2019-02-07T01:34:32.947Z,8.36
2019-02-07T01:35:32.931Z,8.31
2019-02-07T01:36:32.899Z,8.34
2019-02-07T01:37:32.878Z,8.31
2019-02-07T01:38:32.852Z,8.35
2019-02-07T01:39:32.836Z,8.35
2019-02-07T01:40:32.805Z,8.32
2019-02-07T01:41:32.789Z,8.35
2019-02-07T01:42:32.763Z,8.36
2019-02-07T01:43:32.733Z,8.44
2019-02-07T01:44:32.709Z,8.41
2019-02-07T01:45:32.686Z,8.34
2019-02-07T01:46:32.660Z,8.32
2019-02-07T01:47:32.635Z,8.35
2019-02-07T01:48:32.613Z,8.32
2019-02-07T01:49:32.587Z,8.31
2019-02-07T01:50:32.571Z,8.32
2019-02-07T01:51:32.548Z,8.28
2019-02-07T01:52:32.524Z,8.27
2019-02-07T01:53:32.493Z,8.21
2019-02-07T01:54:32.472Z,8.21
2019-02-07T01:55:32.452Z,8.20
2019-02-07T01:56:32.421Z,8.24
2019-02-07T01:57:32.398Z,8.18
2019-02-07T01:58:32.371Z,8.18
2019-02-07T01:59:32.347Z,8.17
2019-02-07T02:00:32.332Z,8.18
2019-02-07T02:01:32.301Z,8.17
2019-02-07T02:02:32.274Z,8.20
2019-02-07T02:03:32.252Z,8.24
2019-02-07T02:04:32.230Z,8.20
2019-02-07T02:05:32.205Z,8.13
2019-02-07T02:06:32.178Z,8.09
2019-02-07T02:07:32.157Z,8.14
2019-02-07T02:08:32.130Z,8.08
2019-02-07T02:09:32.119Z,8.05
2019-02-07T02:10:32.091Z,7.93
2019-02-07T02:11:32.082Z,7.95
2019-02-07T02:12:32.042Z,8.03
2019-02-07T02:13:32.011Z,7.91
2019-02-07T02:14:31.988Z,7.90
2019-02-07T02:15:31.973Z,7.87
2019-02-07T02:16:31.939Z,7.83
2019-02-07T02:17:31.916Z,7.84
2019-02-07T02:18:31.894Z,7.84
2019-02-07T02:19:31.868Z,7.81
2019-02-07T02:20:31.843Z,7.75
2019-02-07T02:21:31.819Z,7.77
2019-02-07T02:22:31.794Z,7.74
2019-02-07T02:23:31.778Z,7.80
2019-02-07T02:24:31.748Z,7.77
2019-02-07T02:25:31.722Z,7.77
2019-02-07T02:26:31.698Z,7.67
2019-02-07T02:27:31.685Z,7.77
2019-02-07T02:28:31.651Z,7.70
2019-02-07T02:29:31.633Z,7.67
2019-02-07T02:30:31.602Z,7.64
2019-02-07T02:31:31.579Z,7.62
2019-02-07T02:32:31.553Z,7.69
2019-02-07T02:33:31.531Z,7.53
2019-02-07T02:34:31.505Z,7.55
2019-02-07T02:35:31.489Z,7.59
2019-02-07T02:36:31.469Z,7.64
2019-02-07T02:37:31.434Z,7.48
2019-02-07T02:38:31.410Z,7.56
2019-02-07T02:39:31.394Z,7.48
2019-02-07T02:40:31.413Z,7.43
2019-02-07T02:41:31.337Z,7.51
2019-02-07T02:42:31.317Z,7.40
2019-02-07T02:43:31.298Z,7.26
2019-02-07T02:44:31.265Z,7.33
2019-02-07T02:45:37.684Z,7.25
2019-02-07T02:46:31.216Z,7.33
2019-02-07T02:47:31.191Z,7.31
2019-02-07T02:48:31.167Z,7.29
2019-02-07T02:49:31.147Z,7.14
2019-02-07T02:50:31.118Z,7.13
2019-02-07T02:51:31.096Z,7.18
2019-02-07T02:52:31.178Z,7.11
2019-02-07T02:53:31.056Z,7.13
2019-02-07T02:54:31.027Z,7.13
2019-02-07T02:55:30.996Z,7.10
2019-02-07T02:56:30.989Z,7.13
2019-02-07T02:57:30.972Z,7.08
2019-02-07T02:58:30.921Z,7.05
2019-02-07T02:59:30.908Z,7.07
2019-02-07T03:00:30.872Z,7.08
2019-02-07T03:01:30.849Z,7.11
2019-02-07T03:02:30.871Z,7.04
2019-02-07T03:03:30.813Z,7.07
2019-02-07T03:04:30.773Z,7.01
2019-02-07T03:05:30.757Z,7.03
2019-02-07T03:06:30.728Z,6.97
2019-02-07T03:07:30.705Z,7.01
2019-02-07T03:08:30.674Z,6.92
2019-02-07T03:09:30.651Z,6.89
2019-02-07T03:10:30.633Z,7.04
2019-02-07T03:11:30.601Z,6.97
2019-02-07T03:12:30.577Z,6.92
2019-02-07T03:13:30.554Z,7.04
2019-02-07T03:14:30.535Z,7.00
2019-02-07T03:15:30.500Z,7.03
2019-02-07T03:16:30.477Z,7.00
2019-02-07T03:17:30.459Z,6.95
2019-02-07T03:18:30.441Z,7.00
2019-02-07T03:19:30.403Z,7.01
2019-02-07T03:20:30.379Z,7.00
2019-02-07T03:21:30.358Z,6.87
2019-02-07T03:22:30.327Z,6.95
2019-02-07T03:23:30.304Z,6.95
2019-02-07T03:24:30.279Z,7.00
2019-02-07T03:25:30.262Z,6.87
2019-02-07T03:26:30.228Z,6.92
2019-02-07T03:27:30.205Z,6.95
2019-02-07T03:28:30.184Z,6.96
2019-02-07T03:29:30.156Z,6.90
2019-02-07T03:30:30.129Z,6.89
2019-02-07T03:31:30.112Z,6.89
2019-02-07T03:32:30.091Z,6.85
2019-02-07T03:33:30.056Z,6.86
2019-02-07T03:34:30.057Z,6.89
2019-02-07T03:35:30.014Z,6.90
2019-02-07T03:36:29.980Z,6.92
2019-02-07T03:37:29.956Z,6.95
2019-02-07T03:38:29.934Z,7.00
2019-02-07T03:39:29.905Z,6.87
2019-02-07T03:40:29.884Z,6.87
2019-02-07T03:41:29.864Z,6.92
2019-02-07T03:42:29.840Z,6.87
2019-02-07T03:43:29.805Z,6.90
2019-02-07T03:44:29.779Z,6.89
2019-02-07T03:45:29.756Z,6.97
2019-02-07T03:46:29.731Z,6.97
2019-02-07T03:47:29.709Z,6.92
2019-02-07T03:48:29.680Z,6.95
2019-02-07T03:49:29.656Z,6.89
2019-02-07T03:50:29.628Z,6.90
2019-02-07T03:51:29.611Z,6.93
2019-02-07T03:52:29.582Z,6.89
2019-02-07T03:53:29.557Z,6.95
2019-02-07T03:54:29.531Z,6.95
2019-02-07T03:55:29.505Z,6.95
2019-02-07T03:56:29.482Z,6.89
2019-02-07T03:57:29.467Z,6.89
2019-02-07T03:58:29.444Z,6.90
2019-02-07T03:59:29.410Z,6.85
2019-02-07T04:00:29.389Z,6.96
2019-02-07T04:01:29.359Z,7.01
2019-02-07T04:02:29.331Z,6.97
2019-02-07T04:03:29.308Z,6.96
2019-02-07T04:04:29.283Z,7.00
2019-02-07T04:05:29.258Z,6.96
2019-02-07T04:06:29.232Z,6.95
2019-02-07T04:07:29.208Z,7.03
2019-02-07T04:08:29.184Z,7.08
2019-02-07T04:09:29.161Z,7.08
2019-02-07T04:10:29.136Z,7.08
2019-02-07T04:11:29.110Z,7.08
2019-02-07T04:12:29.095Z,7.14
2019-02-07T04:13:29.059Z,7.14
2019-02-07T04:14:29.295Z,7.15
2019-02-07T04:15:29.013Z,7.15
2019-02-07T04:16:31.972Z,7.14
2019-02-07T04:17:28.960Z,7.11
2019-02-07T04:18:28.940Z,7.14
2019-02-07T04:19:28.915Z,7.10
2019-02-07T04:20:28.885Z,7.07
2019-02-07T04:21:28.862Z,7.10
2019-02-07T04:22:28.836Z,7.07
2019-02-07T04:23:28.812Z,7.13
2019-02-07T04:24:28.788Z,7.14
2019-02-07T04:25:28.764Z,7.13
2019-02-07T04:26:28.745Z,7.07
2019-02-07T04:27:28.714Z,7.15
2019-02-07T04:28:28.690Z,7.10
2019-02-07T04:29:28.668Z,7.18
2019-02-07T04:30:28.637Z,7.14
2019-02-07T04:31:28.712Z,7.10
2019-02-07T04:32:28.590Z,7.26
2019-02-07T04:33:28.565Z,7.11
2019-02-07T04:34:28.545Z,7.10
2019-02-07T04:35:28.515Z,7.14
2019-02-07T04:36:28.498Z,7.07
2019-02-07T04:37:28.467Z,7.15
2019-02-07T04:38:28.440Z,7.15
2019-02-07T04:39:28.419Z,7.07
2019-02-07T04:40:28.418Z,7.07
2019-02-07T04:41:28.367Z,7.11
2019-02-07T04:42:28.341Z,7.23
2019-02-07T04:43:28.325Z,7.19
2019-02-07T04:44:28.291Z,7.14
2019-02-07T04:45:28.276Z,7.18
2019-02-07T04:46:28.253Z,7.21
2019-02-07T04:47:28.234Z,7.21
2019-02-07T04:48:28.200Z,7.15
2019-02-07T04:49:28.168Z,7.22
2019-02-07T04:50:28.143Z,7.26
2019-02-07T04:51:28.127Z,7.19
2019-02-07T04:52:28.095Z,7.26
2019-02-07T04:53:28.079Z,7.21
2019-02-07T04:54:28.158Z,7.23
2019-02-07T04:55:28.018Z,7.25
2019-02-07T04:56:27.997Z,7.23
2019-02-07T04:57:27.968Z,7.22
2019-02-07T04:58:27.945Z,7.21
2019-02-07T04:59:27.923Z,7.26
2019-02-07T05:00:27.895Z,7.25
2019-02-07T05:01:27.870Z,7.26
2019-02-07T05:02:27.845Z,7.29
2019-02-07T05:03:27.820Z,7.32
2019-02-07T05:04:27.796Z,7.28
2019-02-07T05:05:27.771Z,7.33
2019-02-07T05:06:27.746Z,7.25
2019-02-07T05:07:27.721Z,7.31
2019-02-07T05:08:27.703Z,7.26
2019-02-07T05:09:30.475Z,7.29
2019-02-07T05:10:27.648Z,7.28
2019-02-07T05:11:27.621Z,7.37
2019-02-07T05:12:27.596Z,7.26
2019-02-07T05:13:27.574Z,7.29
2019-02-07T05:14:27.552Z,7.23
2019-02-07T05:15:27.522Z,7.26
2019-02-07T05:16:38.904Z,7.26
2019-02-07T05:17:27.476Z,7.23
2019-02-07T05:18:27.545Z,7.32
2019-02-07T05:19:27.423Z,7.31
2019-02-07T05:20:27.400Z,7.32
2019-02-07T05:21:27.373Z,7.36
2019-02-07T05:22:27.355Z,7.36
2019-02-07T05:23:27.327Z,7.43
2019-02-07T05:24:27.307Z,7.47
2019-02-07T05:25:27.286Z,7.44
2019-02-07T05:26:27.248Z,7.43
2019-02-07T05:27:27.226Z,7.44
2019-02-07T05:28:27.200Z,7.39
2019-02-07T05:29:27.179Z,7.43
2019-02-07T05:30:27.151Z,7.43
2019-02-07T05:31:27.127Z,7.44
2019-02-07T05:32:27.102Z,7.47
2019-02-07T05:33:27.075Z,7.48
2019-02-07T05:34:27.055Z,7.44
2019-02-07T05:35:27.026Z,7.44
2019-02-07T05:36:27.001Z,7.46
2019-02-07T05:37:26.977Z,7.47
2019-02-07T05:38:26.951Z,7.61
2019-02-07T05:39:26.931Z,7.61
2019-02-07T05:40:26.956Z,7.53
2019-02-07T05:41:26.882Z,7.61
2019-02-07T05:42:26.859Z,7.51
2019-02-07T05:43:26.905Z,7.62
2019-02-07T05:44:26.807Z,7.51
2019-02-07T05:45:26.783Z,7.59
2019-02-07T05:46:26.755Z,7.61
2019-02-07T05:47:26.743Z,7.61
2019-02-07T05:48:26.744Z,7.69
2019-02-07T05:49:26.692Z,7.66
2019-02-07T05:50:26.670Z,7.61
2019-02-07T05:51:26.699Z,7.58
2019-02-07T05:52:26.620Z,7.67
2019-02-07T05:53:26.595Z,7.59
2019-02-07T05:54:26.560Z,7.64
2019-02-07T05:55:26.536Z,7.69
2019-02-07T05:56:26.599Z,7.69
2019-02-07T05:57:26.488Z,7.64
2019-02-07T05:58:26.464Z,7.69
2019-02-07T05:59:26.437Z,7.74
2019-02-07T06:00:26.412Z,7.72
2019-02-07T06:01:26.387Z,7.67
2019-02-07T06:02:26.366Z,7.74
2019-02-07T06:03:26.341Z,7.67
2019-02-07T06:04:26.316Z,7.67
2019-02-07T06:05:26.288Z,7.67
2019-02-07T06:06:26.265Z,7.64
2019-02-07T06:07:26.244Z,7.74
2019-02-07T06:08:26.215Z,7.72
2019-02-07T06:09:26.192Z,7.72
2019-02-07T06:10:26.228Z,7.74
2019-02-07T06:11:26.150Z,7.67
2019-02-07T06:12:26.126Z,7.75
2019-02-07T06:13:26.093Z,7.67
2019-02-07T06:14:26.067Z,7.74
2019-02-07T06:15:26.053Z,7.77
2019-02-07T06:16:26.071Z,7.77
2019-02-07T06:17:25.996Z,7.74
2019-02-07T06:18:25.971Z,7.74
2019-02-07T06:19:25.950Z,7.75
2019-02-07T06:20:25.929Z,7.75
2019-02-07T06:21:25.898Z,7.77
2019-02-07T06:22:25.874Z,7.70
2019-02-07T06:23:25.857Z,7.75
2019-02-07T06:24:25.824Z,7.72
2019-02-07T06:25:25.802Z,7.74
2019-02-07T06:26:25.776Z,7.77
2019-02-07T06:27:25.754Z,7.80
2019-02-07T06:28:25.728Z,7.75
2019-02-07T06:29:25.707Z,7.72
2019-02-07T06:30:25.686Z,7.74
2019-02-07T06:31:25.657Z,7.80
2019-02-07T06:32:25.630Z,7.74
2019-02-07T06:33:25.605Z,7.75
2019-02-07T06:34:29.076Z,7.74
2019-02-07T06:35:25.556Z,7.77
2019-02-07T06:36:25.539Z,7.84
2019-02-07T06:37:25.520Z,7.80
2019-02-07T06:38:25.485Z,7.77
2019-02-07T06:39:28.438Z,7.74
2019-02-07T06:40:25.438Z,7.88
2019-02-07T06:41:25.411Z,7.81
2019-02-07T06:42:25.388Z,7.84
2019-02-07T06:43:25.362Z,7.80
2019-02-07T06:44:25.338Z,7.84
2019-02-07T06:45:25.313Z,7.85
2019-02-07T06:46:25.289Z,7.75
2019-02-07T06:47:25.264Z,7.83
2019-02-07T06:48:25.238Z,7.83
2019-02-07T06:49:25.218Z,7.85
2019-02-07T06:50:25.188Z,7.88
2019-02-07T06:51:25.167Z,7.93
2019-02-07T06:52:25.198Z,7.95
2019-02-07T06:53:25.118Z,7.96
2019-02-07T06:54:25.097Z,7.95
2019-02-07T06:55:25.067Z,7.95
2019-02-07T06:56:25.044Z,7.91
2019-02-07T06:57:25.018Z,7.93
2019-02-07T06:58:24.992Z,7.99
2019-02-07T06:59:24.970Z,7.93
2019-02-07T07:00:24.947Z,7.93
2019-02-07T07:01:24.924Z,7.96
2019-02-07T07:02:24.897Z,7.96
2019-02-07T07:03:24.882Z,7.93
2019-02-07T07:04:24.850Z,7.96
2019-02-07T07:05:24.824Z,7.98
2019-02-07T07:06:24.799Z,8.01
2019-02-07T07:07:24.774Z,7.99
2019-02-07T07:08:24.759Z,8.02
2019-02-07T07:09:24.727Z,7.90
2019-02-07T07:10:24.703Z,7.98
2019-02-07T07:11:24.677Z,8.05
2019-02-07T07:12:24.652Z,7.99
2019-02-07T07:13:24.629Z,7.95
2019-02-07T07:14:24.607Z,7.91
2019-02-07T07:15:24.586Z,7.91
2019-02-07T07:16:24.557Z,8.02
2019-02-07T07:17:26.105Z,7.91
2019-02-07T07:18:24.513Z,7.91
2019-02-07T07:19:24.492Z,7.91
2019-02-07T07:20:24.472Z,8.03
2019-02-07T07:21:24.434Z,8.02
2019-02-07T07:22:24.411Z,7.99
2019-02-07T07:23:24.389Z,7.99
2019-02-07T07:24:24.362Z,7.98
2019-02-07T07:25:24.336Z,7.93
2019-02-07T07:26:24.311Z,7.91
2019-02-07T07:27:24.290Z,7.93
2019-02-07T07:28:24.263Z,7.93
2019-02-07T07:29:24.247Z,7.95
2019-02-07T07:30:24.224Z,7.99
2019-02-07T07:31:24.195Z,7.93
2019-02-07T07:32:24.167Z,8.01
2019-02-07T07:33:24.142Z,7.93
2019-02-07T07:34:24.115Z,8.03
2019-02-07T07:35:24.099Z,8.08
2019-02-07T07:36:24.077Z,8.02
2019-02-07T07:37:24.053Z,8.05
2019-02-07T07:38:24.019Z,7.99
2019-02-07T07:39:23.995Z,8.06
2019-02-07T07:40:23.970Z,8.08
2019-02-07T07:41:23.948Z,8.03
2019-02-07T07:42:23.923Z,8.02
2019-02-07T07:43:23.896Z,8.09
2019-02-07T07:44:23.873Z,8.13
2019-02-07T07:45:23.849Z,8.13
2019-02-07T07:46:23.823Z,8.09
2019-02-07T07:47:23.808Z,8.13
2019-02-07T07:48:23.775Z,8.09
2019-02-07T07:49:23.753Z,8.11
2019-02-07T07:50:23.731Z,8.06
2019-02-07T07:51:23.714Z,8.09
2019-02-07T07:52:23.679Z,8.18
2019-02-07T07:53:23.654Z,8.06
2019-02-07T07:54:23.639Z,8.16
2019-02-07T07:55:23.606Z,8.18
2019-02-07T07:56:23.581Z,8.20
2019-02-07T07:57:23.557Z,8.17
2019-02-07T07:58:23.538Z,8.17
2019-02-07T07:59:23.508Z,8.18
2019-02-07T08:00:23.485Z,8.20
2019-02-07T08:01:23.465Z,8.20
2019-02-07T08:02:23.445Z,8.23
2019-02-07T08:03:23.414Z,8.26
2019-02-07T08:04:23.389Z,8.21
2019-02-07T08:05:23.364Z,8.21
2019-02-07T08:06:23.338Z,8.17
2019-02-07T08:07:23.316Z,8.17
2019-02-07T08:08:23.292Z,8.08
2019-02-07T08:09:23.426Z,8.06
2019-02-07T08:10:23.244Z,8.13
2019-02-07T08:11:23.222Z,8.06
2019-02-07T08:12:23.207Z,8.14
2019-02-07T08:13:23.170Z,8.08
2019-02-07T08:14:23.147Z,8.03
2019-02-07T08:15:23.142Z,8.14
2019-02-07T08:16:23.099Z,8.14
2019-02-07T08:17:23.075Z,8.06
2019-02-07T08:18:23.057Z,8.13
2019-02-07T08:19:23.030Z,8.08
2019-02-07T08:20:23.002Z,8.08
2019-02-07T08:21:22.978Z,8.08
2019-02-07T08:22:22.961Z,8.14
2019-02-07T08:23:22.930Z,8.06
2019-02-07T08:24:22.922Z,8.06
2019-02-07T08:25:22.884Z,8.16
2019-02-07T08:26:22.865Z,8.06
2019-02-07T08:27:22.833Z,8.17
2019-02-07T08:28:22.809Z,8.20
2019-02-07T08:29:22.786Z,8.26
2019-02-07T08:30:22.761Z,8.24
2019-02-07T08:31:22.738Z,8.31
2019-02-07T08:32:22.713Z,8.35
2019-02-07T08:33:22.690Z,8.31
2019-02-07T08:34:22.666Z,8.28
2019-02-07T08:35:22.643Z,8.42
2019-02-07T08:36:22.618Z,8.34
2019-02-07T08:37:22.595Z,8.41
2019-02-07T08:38:22.570Z,8.41
2019-02-07T08:39:22.547Z,8.42
2019-02-07T08:40:22.531Z,8.34
2019-02-07T08:41:22.498Z,8.35
2019-02-07T08:42:22.473Z,8.31
2019-02-07T08:43:22.466Z,8.42
2019-02-07T08:44:22.429Z,8.45
2019-02-07T08:45:22.408Z,8.42
2019-02-07T08:46:22.379Z,8.39
2019-02-07T08:47:22.354Z,8.41
2019-02-07T08:48:22.330Z,8.41
2019-02-07T08:49:22.312Z,8.44
2019-02-07T08:50:24.401Z,8.36
2019-02-07T08:51:22.310Z,8.38
2019-02-07T08:52:22.235Z,8.32
2019-02-07T08:53:22.232Z,8.41
2019-02-07T08:54:22.186Z,8.31
2019-02-07T08:55:22.163Z,8.32
2019-02-07T08:56:22.139Z,8.32
2019-02-07T08:57:22.116Z,8.35
2019-02-07T08:58:22.100Z,8.32
2019-02-07T08:59:22.069Z,8.31
2019-02-07T09:00:22.051Z,8.32
2019-02-07T09:01:22.025Z,8.35
2019-02-07T09:02:21.995Z,8.38
2019-02-07T09:03:21.973Z,8.44
2019-02-07T09:04:21.950Z,8.45
2019-02-07T09:05:21.927Z,8.45
2019-02-07T09:06:21.899Z,8.42
2019-02-07T09:07:21.877Z,8.49
2019-02-07T09:08:21.856Z,8.46
2019-02-07T09:09:21.839Z,8.44
2019-02-07T09:10:21.895Z,8.44
2019-02-07T09:11:21.784Z,8.36
2019-02-07T09:12:21.765Z,8.32
2019-02-07T09:13:21.741Z,8.46
2019-02-07T09:14:21.720Z,8.49
2019-02-07T09:15:21.696Z,8.44
2019-02-07T09:16:21.663Z,8.50
2019-02-07T09:17:21.647Z,8.44
2019-02-07T09:18:21.834Z,8.59
2019-02-07T09:19:21.592Z,8.57
2019-02-07T09:20:21.576Z,8.52
2019-02-07T09:21:21.549Z,8.66
2019-02-07T09:22:23.798Z,8.60
2019-02-07T09:23:21.499Z,8.59
2019-02-07T09:24:21.475Z,8.61
2019-02-07T09:25:21.463Z,8.61
2019-02-07T09:26:21.428Z,8.63
2019-02-07T09:27:21.402Z,8.68
2019-02-07T09:28:21.380Z,8.64
2019-02-07T09:29:21.356Z,8.64
2019-02-07T09:30:21.341Z,8.64
2019-02-07T09:31:21.315Z,8.63
2019-02-07T09:32:21.291Z,8.59
2019-02-07T09:33:21.270Z,8.63
2019-02-07T09:34:21.240Z,8.69
2019-02-07T09:35:21.214Z,8.66
2019-02-07T09:36:21.199Z,8.71
2019-02-07T09:37:21.171Z,8.66
2019-02-07T09:38:21.143Z,8.77
2019-02-07T09:39:21.129Z,8.92
2019-02-07T09:40:21.098Z,8.93
2019-02-07T09:41:21.091Z,9.00
2019-02-07T09:42:21.050Z,8.99
2019-02-07T09:43:21.035Z,9.02
2019-02-07T09:44:21.005Z,9.13
2019-02-07T09:45:20.979Z,9.11
2019-02-07T09:46:20.955Z,9.21
2019-02-07T09:47:20.935Z,9.26
2019-02-07T09:48:21.928Z,9.22
2019-02-07T09:49:20.887Z,9.21
2019-02-07T09:50:20.875Z,9.29
2019-02-07T09:51:20.859Z,9.22
2019-02-07T09:52:20.822Z,9.31
2019-02-07T09:53:24.159Z,9.40
2019-02-07T09:54:20.772Z,9.40
2019-02-07T09:55:20.751Z,9.48
2019-02-07T09:56:20.727Z,9.58
2019-02-07T09:57:20.705Z,9.62
2019-02-07T09:58:20.681Z,9.70
2019-02-07T09:59:20.667Z,9.74
2019-02-07T10:00:20.638Z,9.58
2019-02-07T10:01:20.615Z,9.59
2019-02-07T10:02:20.601Z,9.69
2019-02-07T10:03:20.585Z,9.72
2019-02-07T10:04:20.555Z,9.59
2019-02-07T10:05:20.525Z,9.58
2019-02-07T10:06:20.513Z,9.67
2019-02-07T10:07:20.484Z,9.62
2019-02-07T10:08:20.461Z,9.63
2019-02-07T10:09:20.445Z,9.58
2019-02-07T10:10:20.421Z,9.69
2019-02-07T10:11:20.392Z,9.72
2019-02-07T10:12:20.393Z,9.73
2019-02-07T10:13:20.348Z,9.82
2019-02-07T10:14:20.328Z,10.18
2019-02-07T10:15:20.326Z,10.39
2019-02-07T10:16:20.296Z,10.36
2019-02-07T10:17:20.265Z,10.65
2019-02-07T10:18:20.242Z,11.02
2019-02-07T10:19:20.223Z,11.10
2019-02-07T10:20:20.196Z,11.04
2019-02-07T10:21:20.186Z,10.86
2019-02-07T10:22:20.151Z,10.72
2019-02-07T10:23:20.132Z,10.49
2019-02-07T10:24:20.109Z,10.46
2019-02-07T10:25:20.100Z,10.43
2019-02-07T10:26:20.065Z,10.42
2019-02-07T10:27:20.045Z,10.46
2019-02-07T10:28:20.024Z,10.75
2019-02-07T10:29:20.003Z,11.56
2019-02-07T10:30:19.981Z,12.10
2019-02-07T10:31:19.962Z,12.55
2019-02-07T10:32:19.940Z,12.61
2019-02-07T10:33:19.921Z,13.02
2019-02-07T10:34:19.896Z,13.16
2019-02-07T10:35:22.758Z,13.19
2019-02-07T10:36:20.407Z,13.64
2019-02-07T10:37:19.840Z,13.79
2019-02-07T10:38:19.817Z,13.23
2019-02-07T10:39:19.806Z,12.30
2019-02-07T10:40:19.778Z,11.73
2019-02-07T10:41:19.759Z,11.56
2019-02-07T10:42:19.745Z,11.33
2019-02-07T10:43:19.726Z,11.13
2019-02-07T10:44:19.707Z,10.92
2019-02-07T10:45:19.681Z,10.76
2019-02-07T10:46:21.492Z,10.59
2019-02-07T10:47:19.690Z,10.49
2019-02-07T10:48:19.619Z,10.43
2019-02-07T10:49:19.605Z,10.36
2019-02-07T10:50:19.580Z,10.43
2019-02-07T10:51:19.672Z,10.51
2019-02-07T10:52:19.692Z,10.57
2019-02-07T10:53:19.521Z,10.67
2019-02-07T10:54:19.497Z,10.57
2019-02-07T10:55:19.490Z,10.75
2019-02-07T10:56:19.458Z,10.61
2019-02-07T10:57:19.437Z,11.10
2019-02-07T10:58:19.484Z,11.12
2019-02-07T10:59:19.392Z,11.08
2019-02-07T11:00:19.377Z,11.13
2019-02-07T11:01:19.366Z,11.56
2019-02-07T11:02:19.334Z,11.59
2019-02-07T11:03:19.314Z,11.93
2019-02-07T11:04:19.295Z,12.62
2019-02-07T11:05:19.271Z,12.88
2019-02-07T11:06:19.250Z,13.13
2019-02-07T11:07:19.232Z,13.62
2019-02-07T11:08:19.211Z,13.60
2019-02-07T11:09:19.204Z,14.01
2019-02-07T11:10:19.171Z,13.73
2019-02-07T11:11:19.169Z,13.64
2019-02-07T11:12:19.139Z,13.60
2019-02-07T11:13:19.115Z,13.70
2019-02-07T11:14:19.096Z,13.02
2019-02-07T11:15:19.072Z,13.45
2019-02-07T11:16:19.052Z,13.28
2019-02-07T11:17:19.038Z,13.61
2019-02-07T11:18:19.012Z,13.87
2019-02-07T11:19:21.345Z,13.98
2019-02-07T11:20:18.978Z,12.90
2019-02-07T11:21:18.958Z,13.01
2019-02-07T11:22:18.940Z,13.49
2019-02-07T11:23:18.914Z,13.40
2019-02-07T11:24:18.897Z,13.73
2019-02-07T11:25:18.876Z,13.47
2019-02-07T11:26:18.880Z,13.82
2019-02-07T11:27:18.884Z,13.54
2019-02-07T11:28:18.821Z,13.12
2019-02-07T11:29:18.800Z,12.80
2019-02-07T11:30:18.794Z,12.95
2019-02-07T11:31:18.764Z,13.47
2019-02-07T11:32:18.750Z,13.30
2019-02-07T11:33:18.722Z,12.62
2019-02-07T11:34:18.703Z,12.88
2019-02-07T11:35:18.684Z,12.70
2019-02-07T11:36:18.673Z,13.01
2019-02-07T11:37:18.651Z,13.27
2019-02-07T11:38:18.629Z,13.26
2019-02-07T11:39:18.618Z,13.13
2019-02-07T11:40:18.588Z,12.75
2019-02-07T11:41:18.570Z,12.47
2019-02-07T11:42:18.548Z,12.48
2019-02-07T11:43:18.532Z,12.44
2019-02-07T11:44:18.529Z,12.18
2019-02-07T11:45:18.501Z,12.11
2019-02-07T11:46:18.473Z,12.36
2019-02-07T11:47:18.465Z,12.58
2019-02-07T11:48:18.434Z,13.03
2019-02-07T11:49:18.425Z,13.02
2019-02-07T11:50:18.405Z,12.53
2019-02-07T11:51:18.385Z,12.54
2019-02-07T11:52:18.363Z,12.57
2019-02-07T11:53:18.339Z,12.78
2019-02-07T11:54:18.329Z,12.61
2019-02-07T11:55:18.300Z,12.43
2019-02-07T11:56:18.281Z,12.65
2019-02-07T11:57:18.272Z,12.61
2019-02-07T11:58:18.244Z,12.44
2019-02-07T11:59:18.234Z,12.40
2019-02-07T12:00:18.216Z,12.26
2019-02-07T12:01:18.198Z,12.15
2019-02-07T12:02:18.165Z,12.14
2019-02-07T12:03:18.148Z,12.28
2019-02-07T12:04:18.127Z,12.33
2019-02-07T12:05:18.118Z,12.35
2019-02-07T12:06:18.096Z,12.12
2019-02-07T12:07:18.071Z,12.08
2019-02-07T12:08:18.052Z,12.51
2019-02-07T12:09:18.043Z,12.61
2019-02-07T12:10:18.017Z,12.76
2019-02-07T12:11:17.990Z,12.54
2019-02-07T12:12:17.977Z,12.18
2019-02-07T12:13:17.953Z,12.28
2019-02-07T12:14:17.939Z,12.53
2019-02-07T12:15:17.914Z,12.47
2019-02-07T12:16:17.899Z,12.53
2019-02-07T12:17:17.885Z,12.61
2019-02-07T12:18:17.859Z,12.51
2019-02-07T12:19:18.430Z,12.28
2019-02-07T12:20:17.816Z,12.23
2019-02-07T12:21:17.806Z,12.37
2019-02-07T12:22:17.777Z,12.55
2019-02-07T12:23:17.775Z,12.61
2019-02-07T12:24:17.738Z,12.76
2019-02-07T12:25:17.720Z,12.87
2019-02-07T12:26:17.706Z,12.91
2019-02-07T12:27:17.678Z,12.58
2019-02-07T12:28:17.660Z,12.21
2019-02-07T12:29:17.658Z,12.03
2019-02-07T12:30:17.622Z,12.05
2019-02-07T12:31:17.600Z,12.26
2019-02-07T12:32:17.590Z,12.20
2019-02-07T12:33:17.567Z,11.99
2019-02-07T12:34:17.548Z,11.86
2019-02-07T12:35:17.529Z,12.14
2019-02-07T12:36:17.508Z,12.43
2019-02-07T12:37:17.549Z,12.10
2019-02-07T12:38:17.472Z,11.91
2019-02-07T12:39:17.447Z,11.86
2019-02-07T12:40:17.424Z,11.88
2019-02-07T12:41:17.407Z,12.00
2019-02-07T12:42:17.384Z,11.81
2019-02-07T12:43:17.373Z,11.97
2019-02-07T12:44:17.352Z,11.99
2019-02-07T12:45:17.333Z,12.05
2019-02-07T12:46:17.306Z,11.95
2019-02-07T12:47:17.287Z,11.99
2019-02-07T12:48:17.274Z,12.05
2019-02-07T12:49:17.249Z,11.81
2019-02-07T12:50:17.231Z,11.83
2019-02-07T12:51:17.205Z,11.74
2019-02-07T12:52:17.197Z,11.73
2019-02-07T12:53:17.179Z,11.68
2019-02-07T12:54:17.147Z,11.73
2019-02-07T12:55:17.135Z,11.62
2019-02-07T12:56:17.115Z,11.71
2019-02-07T12:57:17.087Z,11.65
2019-02-07T12:58:17.091Z,11.68
2019-02-07T12:59:17.065Z,11.76
2019-02-07T13:00:17.039Z,11.71
2019-02-07T13:01:17.017Z,11.83
2019-02-07T13:02:16.992Z,11.78
2019-02-07T13:03:16.983Z,11.68
2019-02-07T13:04:16.946Z,11.76
2019-02-07T13:05:17.053Z,11.80
2019-02-07T13:06:16.908Z,11.68
2019-02-07T13:07:16.892Z,11.78
2019-02-07T13:08:16.928Z,11.78
2019-02-07T13:09:16.861Z,11.83
2019-02-07T13:10:16.837Z,11.76
2019-02-07T13:11:16.825Z,11.55
2019-02-07T13:12:16.804Z,11.63